Time;durP1;ratioP1;P1;durP2;ratioP2;P2;SDS_P1;SDS_P2;PMS_P1;PMS_P2;Temp;Humidity;BMP_temperature;BMP_pressure;BME280_temperature;BME280_humidity;BME280_pressure;Samples;Min_cycle;Max_cycle;Signal;HPM_P1;HPM_P2
2022/03/23 00:00:07;;;;;;;16.50;10.52;;;;;;;6.23;51.39;100198.03;2617879;54;20038;-62
2022/03/23 00:02:42;;;;;;;16.98;11.27;;;;;;;6.14;50.91;100199.63;2618024;54;20037;-62
2022/03/23 00:05:12;;;;;;;16.23;10.15;;;;;;;6.12;51.14;100201.56;2617501;54;20030;-61
2022/03/23 00:07:42;;;;;;;13.05;10.35;;;;;;;6.20;51.47;100200.91;2617914;54;20043;-62
2022/03/23 00:10:12;;;;;;;15.95;10.95;;;;;;;6.19;51.38;100201.88;2617949;54;20046;-63
2022/03/23 00:12:45;;;;;;;18.20;11.48;;;;;;;6.27;51.48;100199.44;2618260;39;20426;-62
2022/03/23 00:15:15;;;;;;;15.35;11.10;;;;;;;6.31;50.72;100200.00;2617769;54;20081;-62
2022/03/23 00:17:47;;;;;;;16.65;11.32;;;;;;;6.21;50.96;100202.59;2617289;47;20073;-60
2022/03/23 00:20:17;;;;;;;15.35;10.80;;;;;;;6.16;50.98;100195.09;2618049;54;20027;-61
2022/03/23 00:22:52;;;;;;;19.55;11.10;;;;;;;6.01;51.27;100198.19;2617885;54;20126;-61
2022/03/23 00:25:22;;;;;;;15.50;11.10;;;;;;;5.92;51.38;100195.38;2617187;54;20034;-62
2022/03/23 00:27:51;;;;;;;13.43;10.38;;;;;;;5.83;51.98;100203.97;2621510;54;20045;-66
2022/03/23 00:30:21;;;;;;;17.52;10.45;;;;;;;5.76;52.46;100196.75;2620054;50;20038;-62
2022/03/23 00:32:55;;;;;;;14.75;11.32;;;;;;;5.82;52.46;100196.22;2620421;54;20034;-62
2022/03/23 00:35:24;;;;;;;16.65;11.23;;;;;;;5.88;52.27;100199.19;2618149;54;20065;-62
2022/03/23 00:37:55;;;;;;;15.98;11.68;;;;;;;5.81;52.15;100198.03;2620296;54;20082;-62
2022/03/23 00:40:25;;;;;;;17.35;12.27;;;;;;;5.65;52.25;100200.25;2620686;54;20026;-62
2022/03/23 00:42:55;;;;;;;15.82;11.65;;;;;;;5.54;53.08;100200.31;2621629;54;20039;-61
2022/03/23 00:45:26;;;;;;;18.05;11.70;;;;;;;5.56;53.41;100208.91;2621488;54;20581;-62
2022/03/23 00:47:58;;;;;;;23.90;12.68;;;;;;;5.62;53.47;100201.34;2620726;39;20419;-62
2022/03/23 00:50:28;;;;;;;20.75;12.55;;;;;;;5.60;53.49;100211.13;2618785;47;20034;-62
2022/03/23 00:52:58;;;;;;;16.02;11.65;;;;;;;5.61;53.66;100201.47;2623197;47;20027;-63
2022/03/23 00:55:27;;;;;;;14.35;11.32;;;;;;;5.67;53.15;100200.94;2624914;39;20403;-62
2022/03/23 00:57:58;;;;;;;15.40;10.63;;;;;;;5.71;52.95;100202.34;2624557;39;20445;-63
2022/03/23 01:00:28;;;;;;;13.93;10.50;;;;;;;5.76;53.10;100204.63;2623617;54;20030;-62
2022/03/23 01:03:00;;;;;;;17.25;11.35;;;;;;;5.85;52.41;100206.47;2623922;54;20025;-62
2022/03/23 01:05:31;;;;;;;16.30;11.30;;;;;;;5.84;52.38;100197.78;2623201;54;20092;-64
2022/03/23 01:08:01;;;;;;;17.90;13.23;;;;;;;5.68;52.65;100200.00;2621971;54;20038;-62
2022/03/23 01:10:32;;;;;;;17.52;11.77;;;;;;;5.46;52.83;100212.25;2619497;54;20038;-62
2022/03/23 01:13:03;;;;;;;18.05;12.65;;;;;;;5.29;53.59;100204.94;2620003;54;20034;-61
2022/03/23 01:15:33;;;;;;;23.40;12.82;;;;;;;5.13;53.60;100200.09;2621270;54;20034;-61
2022/03/23 01:18:06;;;;;;;19.00;12.82;;;;;;;5.00;54.16;100209.06;2618994;47;20038;-62
2022/03/23 01:20:36;;;;;;;15.27;12.18;;;;;;;4.92;54.10;100202.66;2617761;47;20026;-62
2022/03/23 01:23:06;;;;;;;16.38;12.15;;;;;;;4.86;54.31;100204.94;2618439;54;20031;-62
2022/03/23 01:25:36;;;;;;;21.05;12.02;;;;;;;4.87;55.15;100202.19;2617626;54;20034;-62
2022/03/23 01:28:08;;;;;;;17.00;12.70;;;;;;;5.06;54.78;100201.56;2617994;54;20037;-62
2022/03/23 01:30:39;;;;;;;17.15;12.48;;;;;;;5.13;54.66;100194.84;2617804;54;20019;-62
2022/03/23 01:33:11;;;;;;;19.05;13.07;;;;;;;5.01;54.63;100193.22;2623411;54;20033;-61
2022/03/23 01:35:41;;;;;;;19.98;13.63;;;;;;;4.92;54.53;100192.16;2624374;39;20433;-61
2022/03/23 01:38:11;;;;;;;16.00;12.70;;;;;;;4.81;55.12;100201.81;2618529;47;20041;-63
2022/03/23 01:40:40;;;;;;;16.55;11.98;;;;;;;4.66;55.28;100191.63;2617808;47;20026;-62
2022/03/23 01:43:11;;;;;;;16.73;11.50;;;;;;;4.55;55.76;100193.41;2617713;47;20538;-62
2022/03/23 01:45:41;;;;;;;18.80;11.40;;;;;;;4.48;55.61;100200.91;2617996;54;20026;-61
2022/03/23 01:48:13;;;;;;;16.02;11.75;;;;;;;4.39;55.97;100197.22;2618314;54;20038;-63
2022/03/23 01:50:44;;;;;;;19.65;11.82;;;;;;;4.39;56.04;100199.84;2618545;39;20496;-62
2022/03/23 01:53:14;;;;;;;15.65;11.10;;;;;;;4.46;55.52;100203.66;2618063;54;20030;-62
2022/03/23 01:55:43;;;;;;;16.25;10.80;;;;;;;4.53;55.61;100195.31;2617332;54;20049;-62
2022/03/23 01:58:13;;;;;;;23.13;12.65;;;;;;;4.58;55.29;100199.25;2617534;54;20580;-62
2022/03/23 02:00:43;;;;;;;25.10;12.82;;;;;;;4.71;55.15;100194.69;2617274;54;20031;-63
2022/03/23 02:03:16;;;;;;;19.08;12.00;;;;;;;4.75;54.75;100194.47;2617433;54;20501;-62
2022/03/23 02:05:46;;;;;;;16.85;11.90;;;;;;;4.70;55.02;100198.28;2617926;54;20042;-62
2022/03/23 02:08:16;;;;;;;14.80;11.23;;;;;;;4.77;55.10;100203.03;2617513;47;20030;-62
2022/03/23 02:10:51;;;;;;;16.58;11.82;;;;;;;4.74;54.98;100192.81;2617504;47;20637;-64
2022/03/23 02:13:30;;;;;;;15.25;10.88;;;;;;;4.65;54.58;100200.44;2617638;47;20031;-63
2022/03/23 02:16:00;;;;;;;20.23;11.77;;;;;;;4.48;55.18;100193.03;2617684;39;20178;-63
2022/03/23 02:18:35;;;;;;;15.68;11.50;;;;;;;4.38;55.28;100197.34;2617661;54;20027;-63
2022/03/23 02:21:05;;;;;;;17.42;12.35;;;;;;;4.36;55.85;100196.63;2617700;54;20038;-62
2022/03/23 02:23:39;;;;;;;17.58;11.90;;;;;;;4.29;55.34;100193.66;2618104;39;20591;-63
2022/03/23 02:26:11;;;;;;;18.08;12.35;;;;;;;4.18;55.93;100197.09;2618587;39;20426;-61
2022/03/23 02:28:40;;;;;;;17.60;11.82;;;;;;;4.11;55.82;100200.28;2619191;54;20557;-62
2022/03/23 02:31:10;;;;;;;17.92;11.68;;;;;;;4.05;56.46;100191.13;2621354;54;20562;-62
2022/03/23 02:33:40;;;;;;;15.40;10.32;;;;;;;4.11;56.58;100192.44;2617868;54;20031;-61
2022/03/23 02:36:10;;;;;;;14.57;11.18;;;;;;;4.19;56.47;100192.69;2617382;54;20077;-61
2022/03/23 02:38:44;;;;;;;17.23;11.40;;;;;;;4.25;56.33;100188.78;2618183;54;20577;-61
2022/03/23 02:41:14;;;;;;;;;;;;;;;4.24;56.22;100195.78;2618070;54;20040;-63
2022/03/23 02:43:43;;;;;;;14.70;10.32;;;;;;;4.28;55.90;100194.59;2619390;47;20450;-62
2022/03/23 02:46:15;;;;;;;15.35;10.63;;;;;;;4.35;55.82;100187.09;2619693;54;20510;-61
2022/03/23 02:48:45;;;;;;;20.13;11.77;;;;;;;4.37;55.98;100190.44;2620189;54;20031;-63
2022/03/23 02:51:15;;;;;;;19.95;12.90;;;;;;;4.36;55.68;100194.81;2619745;54;20041;-61
2022/03/23 03:02:23;;;;;;;18.10;12.95;;;;;;;3.78;56.81;100193.22;2619286;47;20034;-62
2022/03/23 03:04:53;;;;;;;17.67;12.50;;;;;;;3.71;57.20;100195.44;2618156;54;20114;-61
2022/03/23 03:07:23;;;;;;;18.95;13.07;;;;;;;3.66;57.18;100201.00;2618458;39;20436;-61
2022/03/23 03:09:55;;;;;;;19.50;13.57;;;;;;;3.64;58.10;100202.94;2617543;54;20038;-60
2022/03/23 03:12:26;;;;;;;15.13;11.63;;;;;;;3.71;57.73;100205.91;2617475;47;20058;-62
2022/03/23 03:14:55;;;;;;;16.23;12.73;;;;;;;3.77;57.36;100202.00;2618032;54;20041;-61
2022/03/23 03:17:25;;;;;;;17.65;12.50;;;;;;;3.80;57.65;100205.25;2618826;54;20031;-62
2022/03/23 03:19:54;;;;;;;17.27;11.93;;;;;;;3.82;57.37;100210.34;2622938;47;20510;-62
2022/03/23 03:22:25;;;;;;;16.55;11.80;;;;;;;3.77;56.98;100210.69;2623485;54;20030;-63
2022/03/23 03:24:57;;;;;;;16.73;12.73;;;;;;;3.71;57.34;100205.91;2620550;54;20030;-60
2022/03/23 03:27:27;;;;;;;19.10;13.07;;;;;;;3.59;57.44;100207.69;2618226;54;20035;-61
2022/03/23 03:29:56;;;;;;;16.80;12.43;;;;;;;3.52;57.58;100208.25;2620758;54;20054;-62
2022/03/23 03:32:26;;;;;;;18.08;12.05;;;;;;;3.53;57.98;100215.97;2622187;54;20038;-62
2022/03/23 03:34:55;;;;;;;20.65;12.02;;;;;;;3.57;57.82;100208.72;2621451;54;20026;-62
2022/03/23 03:37:26;;;;;;;20.10;13.63;;;;;;;3.48;57.79;100210.25;2621207;47;20029;-62
2022/03/23 03:39:59;;;;;;;17.95;12.98;;;;;;;3.37;58.06;100212.78;2621925;54;20038;-63
2022/03/23 03:42:29;;;;;;;18.15;12.48;;;;;;;3.31;58.17;100214.09;2621641;54;20145;-62
2022/03/23 03:44:58;;;;;;;20.38;12.35;;;;;;;3.28;58.35;100216.09;2621829;54;20037;-60
2022/03/23 03:47:28;;;;;;;19.65;13.80;;;;;;;3.27;58.51;100212.66;2621390;47;20119;-61
2022/03/23 03:49:58;;;;;;;20.08;12.85;;;;;;;3.29;58.43;100222.97;2621721;54;20034;-62
2022/03/23 03:52:27;;;;;;;20.77;12.80;;;;;;;3.20;58.88;100225.31;2622247;54;20038;-62
2022/03/23 03:54:59;;;;;;;17.27;12.10;;;;;;;3.07;59.37;100223.69;2621711;54;20030;-61
2022/03/23 03:57:29;;;;;;;17.58;12.40;;;;;;;3.07;59.40;100223.69;2622225;54;20045;-62
2022/03/23 03:59:59;;;;;;;20.50;14.30;;;;;;;3.22;59.36;100233.03;2622331;54;20046;-61
2022/03/23 04:02:28;;;;;;;41.95;25.10;;;;;;;3.32;59.39;100230.59;2619844;54;20042;-62
2022/03/23 04:04:58;;;;;;;16.75;12.65;;;;;;;3.27;59.56;100230.94;2616763;47;20045;-62
2022/03/23 04:07:28;;;;;;;18.67;13.60;;;;;;;3.25;58.88;100227.59;2618440;31;20509;-62
2022/03/23 04:10:00;;;;;;;18.08;13.48;;;;;;;3.23;59.23;100235.56;2618293;54;20057;-63
2022/03/23 04:12:29;;;;;;;25.60;13.57;;;;;;;3.12;59.09;100232.88;2622782;54;20031;-62
2022/03/23 04:14:59;;;;;;;21.88;13.30;;;;;;;3.01;59.55;100226.75;2622454;54;20074;-61
2022/03/23 04:17:29;;;;;;;17.95;12.98;;;;;;;2.97;60.23;100233.94;2621794;47;20039;-61
2022/03/23 04:19:58;;;;;;;20.30;13.50;;;;;;;3.04;60.12;100232.59;2621262;54;20073;-63
2022/03/23 04:22:28;;;;;;;19.92;13.32;;;;;;;2.95;60.14;100241.09;2621712;47;20526;-63
2022/03/23 04:25:00;;;;;;;17.02;13.30;;;;;;;2.87;60.23;100240.78;2622843;54;20034;-62
2022/03/23 04:27:30;;;;;;;18.23;13.73;;;;;;;2.80;60.41;100244.75;2623005;54;20037;-63
2022/03/23 04:29:59;;;;;;;17.77;12.80;;;;;;;2.72;60.25;100245.31;2625940;39;20446;-61
2022/03/23 04:32:29;;;;;;;20.67;14.50;;;;;;;2.74;60.48;100243.44;2624181;54;20038;-62
2022/03/23 04:35:01;;;;;;;19.33;12.95;;;;;;;2.83;60.47;100255.00;2621387;54;20145;-65
2022/03/23 04:37:31;;;;;;;17.38;13.20;;;;;;;3.00;60.27;100254.66;2623271;39;20481;-62
2022/03/23 04:40:04;;;;;;;18.50;13.05;;;;;;;2.90;60.37;100248.41;2622170;54;20538;-62
2022/03/23 04:42:33;;;;;;;18.55;14.43;;;;;;;2.85;59.95;100246.09;2618937;39;20425;-62
2022/03/23 04:45:03;;;;;;;19.70;13.63;;;;;;;2.71;60.31;100249.69;2618764;54;20038;-62
2022/03/23 04:47:33;;;;;;;18.42;13.85;;;;;;;2.61;60.49;100253.03;2619135;39;20441;-62
2022/03/23 04:50:03;;;;;;;21.38;13.45;;;;;;;2.58;60.86;100255.88;2618417;54;20058;-62
2022/03/23 04:52:32;;;;;;;23.45;13.60;;;;;;;2.61;60.99;100250.41;2618649;54;20034;-62
2022/03/23 04:55:05;;;;;;;17.73;13.45;;;;;;;2.53;60.89;100253.59;2618363;54;20038;-62
2022/03/23 04:57:34;;;;;;;19.73;12.95;;;;;;;2.52;61.19;100258.91;2618445;54;20045;-62
2022/03/23 05:00:05;;;;;;;19.15;12.65;;;;;;;2.46;61.18;100254.94;2618302;54;20048;-62
2022/03/23 05:02:34;;;;;;;18.40;13.23;;;;;;;2.43;61.42;100260.38;2618408;54;20045;-63
2022/03/23 05:05:04;;;;;;;21.92;14.35;;;;;;;2.41;61.00;100267.47;2618421;39;20414;-61
2022/03/23 05:07:34;;;;;;;19.33;13.15;;;;;;;2.42;61.20;100263.94;2622687;54;20030;-61
2022/03/23 05:10:08;;;;;;;20.30;12.65;;;;;;;2.43;61.62;100269.03;2623478;54;20038;-62
2022/03/23 05:12:38;;;;;;;21.88;12.45;;;;;;;2.43;61.25;100263.81;2620578;54;20114;-61
2022/03/23 05:15:09;;;;;;;20.92;13.38;;;;;;;2.50;61.40;100271.25;2620395;54;20034;-62
2022/03/23 05:17:39;;;;;;;17.15;12.23;;;;;;;2.41;61.39;100265.72;2620734;54;20042;-61
2022/03/23 05:20:11;;;;;;;18.67;13.43;;;;;;;2.36;61.56;100269.56;2623225;54;20036;-61
2022/03/23 05:22:41;;;;;;;23.98;13.80;;;;;;;2.33;61.60;100269.78;2623235;54;20041;-60
2022/03/23 05:25:13;;;;;;;18.90;12.73;;;;;;;2.33;61.87;100273.22;2620399;54;20042;-59
2022/03/23 05:27:44;;;;;;;17.75;12.68;;;;;;;2.44;61.85;100272.47;2620987;54;20041;-62
2022/03/23 05:30:14;;;;;;;17.98;12.80;;;;;;;2.55;61.72;100271.75;2620792;54;20034;-60
2022/03/23 05:32:44;;;;;;;16.73;11.70;;;;;;;2.68;61.56;100270.78;2620004;54;20538;-60
2022/03/23 05:35:14;;;;;;;20.48;12.57;;;;;;;2.76;61.29;100275.47;2620963;39;20497;-61
2022/03/23 05:37:44;;;;;;;19.77;13.55;;;;;;;2.88;60.66;100279.03;2620824;54;20030;-60
2022/03/23 05:40:16;;;;;;;22.08;13.60;;;;;;;2.87;60.16;100282.56;2622216;54;20049;-60
2022/03/23 05:42:45;;;;;;;24.20;13.40;;;;;;;2.81;60.42;100276.00;2621978;54;20046;-62
2022/03/23 05:45:16;;;;;;;20.38;13.25;;;;;;;2.77;60.64;100284.97;2620630;54;20043;-60
2022/03/23 05:47:45;;;;;;;20.13;14.35;;;;;;;2.81;60.83;100281.22;2621076;54;20034;-62
2022/03/23 05:50:15;;;;;;;20.55;13.98;;;;;;;2.71;60.94;100285.41;2619814;47;20037;-61
2022/03/23 05:52:45;;;;;;;19.52;13.13;;;;;;;2.69;60.59;100279.44;2620067;54;20110;-59
2022/03/23 05:55:17;;;;;;;21.10;14.75;;;;;;;2.66;60.73;100277.91;2619901;54;20046;-61
2022/03/23 05:57:47;;;;;;;33.80;16.08;;;;;;;2.62;60.85;100286.06;2622434;54;20030;-61
2022/03/23 06:00:17;;;;;;;23.98;15.60;;;;;;;2.56;61.04;100283.84;2622669;39;20411;-62
2022/03/23 06:02:50;;;;;;;21.50;14.85;;;;;;;2.47;61.60;100287.94;2620407;54;20034;-60
2022/03/23 06:05:20;;;;;;;22.30;14.82;;;;;;;2.59;61.44;100292.31;2620783;47;20018;-61
2022/03/23 06:07:50;;;;;;;29.88;14.90;;;;;;;2.70;61.55;100289.81;2621645;46;20053;-61
2022/03/23 06:10:22;;;;;;;24.77;14.93;;;;;;;2.71;61.19;100288.03;2621858;54;20557;-60
2022/03/23 06:12:52;;;;;;;24.27;16.15;;;;;;;2.71;60.90;100293.25;2621061;54;20030;-61
2022/03/23 06:15:22;;;;;;;24.25;14.40;;;;;;;2.71;61.39;100293.25;2621826;54;20031;-61
2022/03/23 06:17:51;;;;;;;22.05;14.23;;;;;;;2.76;61.67;100296.38;2623051;54;20099;-60
2022/03/23 06:20:21;;;;;;;22.08;16.25;;;;;;;2.93;60.99;100296.03;2622073;54;20034;-61
2022/03/23 06:22:51;;;;;;;25.48;16.05;;;;;;;2.97;60.90;100297.47;2623091;54;20529;-61
2022/03/23 06:25:24;;;;;;;21.30;14.75;;;;;;;2.93;61.03;100296.03;2624385;39;20446;-60
2022/03/23 06:27:54;;;;;;;26.58;15.63;;;;;;;2.94;61.38;100304.72;2623897;54;20031;-61
2022/03/23 06:30:23;;;;;;;28.45;15.98;;;;;;;3.07;61.34;100292.47;2623567;39;20437;-60
2022/03/23 06:32:53;;;;;;;24.27;16.30;;;;;;;3.25;61.29;100305.16;2622968;54;20041;-63
2022/03/23 06:35:24;;;;;;;23.65;14.35;;;;;;;3.31;60.60;100302.97;2624087;54;20045;-61
2022/03/23 06:37:53;;;;;;;23.42;15.88;;;;;;;3.41;60.34;100297.91;2624627;54;20098;-62
2022/03/23 06:40:25;;;;;;;23.80;16.48;;;;;;;3.54;59.93;100303.06;2623499;54;20031;-60
2022/03/23 06:42:55;;;;;;;24.60;15.25;;;;;;;3.55;59.74;100312.56;2623605;54;20042;-59
2022/03/23 06:45:25;;;;;;;22.15;15.73;;;;;;;3.57;59.95;100311.53;2623294;39;20418;-60
2022/03/23 06:47:54;;;;;;;27.25;17.00;;;;;;;3.54;59.79;100309.13;2622738;54;20050;-62
2022/03/23 06:50:24;;;;;;;30.85;17.08;;;;;;;3.59;59.67;100306.19;2623729;54;20038;-62
2022/03/23 06:52:54;;;;;;;24.77;16.95;;;;;;;3.70;59.99;100314.91;2624354;54;20596;-61
2022/03/23 06:55:26;;;;;;;25.92;17.13;;;;;;;3.82;59.07;100307.97;2624552;54;20042;-62
2022/03/23 06:57:55;;;;;;;30.20;16.88;;;;;;;3.90;59.04;100313.47;2624923;54;20042;-62
2022/03/23 07:00:25;;;;;;;29.30;18.27;;;;;;;4.03;58.87;100309.94;2624173;54;20058;-61
2022/03/23 07:02:54;;;;;;;29.02;17.95;;;;;;;4.12;58.47;100311.88;2622365;47;20030;-62
2022/03/23 07:05:24;;;;;;;26.40;17.50;;;;;;;4.25;58.65;100306.56;2622216;54;20034;-61
2022/03/23 07:10:39;;;;;;;26.20;16.60;;;;;;;4.53;58.45;100310.53;2622736;54;20038;-61
2022/03/23 07:13:08;;;;;;;24.20;16.70;;;;;;;4.57;57.97;100318.06;2622326;54;20057;-60
2022/03/23 07:15:38;;;;;;;29.92;18.35;;;;;;;4.71;57.69;100320.44;2622367;54;20086;-62
2022/03/23 07:18:08;;;;;;;23.10;16.10;;;;;;;4.79;57.26;100322.47;2622910;54;20050;-62
2022/03/23 07:20:38;;;;;;;25.00;16.55;;;;;;;4.79;57.49;100317.25;2622688;54;20121;-62
2022/03/23 07:23:08;;;;;;;22.63;16.60;;;;;;;4.94;57.31;100317.84;2622146;54;20677;-62
2022/03/23 07:25:40;;;;;;;27.00;18.40;;;;;;;5.04;56.77;100315.34;2620588;54;20034;-63
2022/03/23 07:28:10;;;;;;;27.25;17.30;;;;;;;5.09;56.88;100321.88;2620163;47;20027;-63
2022/03/23 07:30:40;;;;;;;27.08;16.98;;;;;;;5.24;56.98;100319.84;2620266;54;20030;-63
2022/03/23 07:33:10;;;;;;;26.38;16.88;;;;;;;5.38;56.66;100321.34;2620190;54;20122;-63
2022/03/23 07:35:40;;;;;;;25.25;17.48;;;;;;;5.49;56.25;100323.13;2619832;54;20090;-63
2022/03/23 07:38:09;;;;;;;23.83;16.48;;;;;;;5.63;56.48;100323.69;2620131;54;20038;-63
2022/03/23 07:40:42;;;;;;;26.55;16.70;;;;;;;5.81;56.21;100318.75;2620279;54;20061;-62
2022/03/23 07:43:12;;;;;;;25.55;16.77;;;;;;;5.98;55.66;100322.66;2620241;54;20049;-63
2022/03/23 07:45:41;;;;;;;22.92;16.20;;;;;;;6.03;55.36;100320.47;2620252;54;20046;-62
2022/03/23 07:48:11;;;;;;;27.48;17.80;;;;;;;6.21;55.48;100318.13;2620574;54;20069;-63
2022/03/23 07:50:40;;;;;;;25.45;17.50;;;;;;;6.36;54.98;100316.81;2620703;54;20033;-63
2022/03/23 07:53:10;;;;;;;25.73;17.63;;;;;;;6.51;54.70;100316.50;2620193;54;20034;-63
2022/03/23 07:55:42;;;;;;;31.63;21.65;;;;;;;6.65;54.00;100319.66;2620719;39;20415;-63
2022/03/23 07:58:12;;;;;;;31.50;18.77;;;;;;;6.78;54.16;100314.19;2620192;54;20034;-63
2022/03/23 08:00:43;;;;;;;28.35;19.92;;;;;;;6.92;53.75;100313.81;2620331;54;20064;-62
2022/03/23 08:03:13;;;;;;;31.98;21.60;;;;;;;6.95;52.85;100320.63;2620250;54;20034;-62
2022/03/23 08:05:44;;;;;;;28.73;19.17;;;;;;;6.96;52.66;100322.28;2618907;54;20581;-62
2022/03/23 08:08:13;;;;;;;29.42;20.42;;;;;;;7.06;52.47;100314.41;2620638;54;20039;-62
2022/03/23 08:10:46;;;;;;;30.58;19.80;;;;;;;7.17;52.48;100322.19;2620138;54;20546;-62
2022/03/23 08:13:16;;;;;;;28.55;20.05;;;;;;;7.32;51.90;100325.31;2620529;54;20034;-59
2022/03/23 08:15:47;;;;;;;28.55;19.13;;;;;;;7.38;51.71;100328.22;2622004;54;20089;-60
2022/03/23 08:18:21;;;;;;;26.55;18.63;;;;;;;7.43;52.09;100320.78;2621906;54;20042;-62
2022/03/23 08:20:50;;;;;;;;;;;;;;;7.60;52.13;100318.44;2621903;54;20058;-60
2022/03/23 08:23:20;;;;;;;27.60;19.55;;;;;;;7.77;51.98;100320.41;2622527;54;19968;-60
2022/03/23 08:25:52;;;;;;;31.40;19.08;;;;;;;7.95;51.72;100312.63;2621984;54;20026;-60
2022/03/23 08:28:22;;;;;;;30.38;19.83;;;;;;;8.09;50.91;100314.03;2622839;54;20031;-60
2022/03/23 08:30:51;;;;;;;31.60;20.33;;;;;;;8.24;51.02;100311.78;2622635;54;20066;-60
2022/03/23 08:33:25;;;;;;;28.38;18.90;;;;;;;8.35;50.54;100309.81;2622251;54;20157;-59
2022/03/23 08:35:54;;;;;;;30.43;19.97;;;;;;;8.44;49.94;100314.28;2622130;54;20026;-60
2022/03/23 08:38:24;;;;;;;28.60;19.10;;;;;;;8.64;50.04;100304.50;2622069;54;20026;-60
2022/03/23 08:40:57;;;;;;;31.88;19.85;;;;;;;8.79;49.96;100309.34;2622295;39;20522;-60
2022/03/23 08:43:27;;;;;;;28.42;20.08;;;;;;;9.00;49.45;100304.66;2621412;54;20038;-60
2022/03/23 08:45:59;;;;;;;30.40;19.77;;;;;;;9.13;49.14;100309.59;2621362;47;20090;-62
2022/03/23 08:48:29;;;;;;;28.75;21.17;;;;;;;9.27;48.62;100308.31;2621243;54;20125;-60
2022/03/23 08:50:59;;;;;;;29.83;18.85;;;;;;;9.46;48.44;100304.69;2621522;54;20062;-59
2022/03/23 08:53:29;;;;;;;28.63;20.00;;;;;;;9.63;47.83;100304.75;2621485;47;20031;-61
2022/03/23 08:56:02;;;;;;;35.78;20.10;;;;;;;9.78;47.60;100298.91;2623970;54;20027;-61
2022/03/23 08:58:31;;;;;;;29.23;20.20;;;;;;;9.84;47.67;100298.31;2624423;54;20027;-61
2022/03/23 09:01:01;;;;;;;32.53;21.75;;;;;;;10.01;46.41;100296.66;2625041;54;20033;-61
2022/03/23 09:03:31;;;;;;;29.75;20.45;;;;;;;10.08;46.32;100295.91;2624593;54;20042;-62
2022/03/23 09:06:01;;;;;;;31.98;23.33;;;;;;;10.20;45.53;100296.47;2624379;39;20420;-62
2022/03/23 09:08:36;;;;;;;36.97;24.58;;;;;;;10.32;44.78;100303.19;2624641;54;20035;-61
2022/03/23 09:11:08;;;;;;;36.70;24.70;;;;;;;10.43;45.07;100296.00;2624229;46;20075;-62
2022/03/23 09:13:38;;;;;;;39.40;25.48;;;;;;;10.56;45.12;100296.41;2624826;39;20457;-62
2022/03/23 09:16:09;;;;;;;40.15;27.52;;;;;;;10.75;44.68;100288.25;2623658;54;20110;-62
2022/03/23 09:18:39;;;;;;;46.75;32.42;;;;;;;10.91;44.40;100292.81;2624024;54;20045;-63
2022/03/23 09:21:08;;;;;;;36.75;24.85;;;;;;;11.03;43.75;100293.38;2623874;54;20041;-62
2022/03/23 09:23:38;;;;;;;34.58;23.48;;;;;;;11.15;43.27;100289.44;2624761;39;20481;-62
2022/03/23 09:26:11;;;;;;;37.33;25.25;;;;;;;11.26;42.85;100291.78;2624211;54;20038;-61
2022/03/23 09:28:41;;;;;;;42.75;28.52;;;;;;;11.44;42.69;100286.38;2624284;54;20038;-61
2022/03/23 09:31:11;;;;;;;41.80;30.98;;;;;;;11.62;41.96;100287.06;2624055;54;20592;-71
2022/03/23 09:33:42;;;;;;;45.67;31.73;;;;;;;11.77;41.72;100281.97;2624076;54;20053;-62
2022/03/23 09:37:47;;;;;;;43.20;27.52;;;;;;;11.90;41.66;100289.47;2623624;54;20046;-62
2022/03/23 09:39:14;;;;;;;42.75;27.02;;;;;;;12.06;41.06;100281.50;2623661;54;20576;-63
2022/03/23 09:41:47;;;;;;;35.92;22.50;;;;;;;12.20;41.14;100281.81;2624184;54;20570;-62
2022/03/23 09:44:17;;;;;;;46.97;26.40;;;;;;;12.38;40.99;100272.69;2622497;54;20042;-63
2022/03/23 09:46:47;;;;;;;40.47;26.05;;;;;;;12.51;40.33;100274.81;2622672;54;20035;-62
2022/03/23 09:49:16;;;;;;;34.25;23.58;;;;;;;12.59;39.91;100274.81;2624257;54;20027;-63
2022/03/23 09:51:51;;;;;;;42.60;25.58;;;;;;;12.73;38.83;100280.41;2624539;54;20082;-62
2022/03/23 09:54:21;;;;;;;31.83;23.10;;;;;;;12.83;38.41;100270.44;2624429;39;20402;-62
2022/03/23 09:56:53;;;;;;;31.10;22.77;;;;;;;12.96;38.47;100267.22;2624071;54;20580;-62
2022/03/23 09:59:23;;;;;;;32.83;22.13;;;;;;;13.07;37.82;100264.22;2624263;54;20041;-63
2022/03/23 10:02:25;;;;;;;33.30;19.85;;;;;;;13.16;37.82;100271.13;2623997;54;20241;-62
2022/03/23 10:05:39;;;;;;;30.83;22.25;;;;;;;13.33;38.34;100274.56;2623618;54;20095;-62
2022/03/23 10:08:38;;;;;;;30.83;21.35;;;;;;;13.47;37.91;100259.69;2623819;54;20038;-62
2022/03/23 10:11:57;;;;;;;28.08;20.40;;;;;;;13.62;37.68;100266.72;2623127;54;20578;-65
2022/03/23 10:15:11;;;;;;;27.52;20.08;;;;;;;13.71;37.34;100254.19;2622730;54;20034;-63
2022/03/23 10:18:26;;;;;;;34.35;20.50;;;;;;;13.99;36.98;100256.31;2621862;54;20038;-63
2022/03/23 10:20:58;;;;;;;32.67;22.98;;;;;;;14.13;36.88;100253.72;2621898;54;20034;-63
2022/03/23 10:23:29;;;;;;;26.92;19.88;;;;;;;14.18;36.70;100249.69;2622329;54;20094;-64
2022/03/23 10:29:02;;;;;;;26.48;19.73;;;;;;;14.27;36.17;100248.59;2621368;31;20490;-64
2022/03/23 10:31:32;;;;;;;26.90;20.58;;;;;;;14.40;35.75;100256.75;2621628;54;20554;-62
2022/03/23 10:34:07;;;;;;;24.15;19.20;;;;;;;14.47;35.49;100248.88;2621862;54;20026;-62
2022/03/23 10:36:54;;;;;;;27.45;20.33;;;;;;;14.56;35.27;100248.63;2621755;54;20061;-61
2022/03/23 10:39:30;;;;;;;33.53;20.45;;;;;;;14.61;35.04;100248.94;2622093;54;20038;-62
2022/03/23 10:42:01;;;;;;;30.55;19.90;;;;;;;14.68;34.88;100243.69;2622096;54;20033;-63
2022/03/23 10:44:31;;;;;;;28.30;19.98;;;;;;;14.75;34.86;100241.13;2622139;54;20050;-63
2022/03/23 10:47:01;;;;;;;28.45;19.23;;;;;;;14.82;34.42;100239.38;2622523;54;20081;-63
2022/03/23 10:49:38;;;;;;;25.40;17.60;;;;;;;14.95;34.43;100236.88;2622119;54;20027;-66
2022/03/23 10:52:18;;;;;;;27.65;17.83;;;;;;;15.05;34.24;100236.56;2622817;54;20034;-62
2022/03/23 10:54:59;;;;;;;23.05;18.70;;;;;;;15.13;33.80;100233.00;2621904;54;20026;-64
2022/03/23 10:57:51;;;;;;;26.67;18.63;;;;;;;15.20;33.54;100225.91;2622399;54;20042;-63
2022/03/23 11:00:32;;;;;;;25.77;18.92;;;;;;;15.26;33.59;100223.28;2622379;54;20069;-64
2022/03/23 11:03:02;;;;;;;25.85;19.77;;;;;;;15.44;33.38;100214.06;2621806;54;20036;-63
2022/03/23 11:05:34;;;;;;;26.20;18.40;;;;;;;15.65;32.62;100221.28;2621398;54;20033;-63
2022/03/23 11:08:14;;;;;;;28.70;17.83;;;;;;;15.70;31.98;100216.19;2622348;54;20027;-63
2022/03/23 11:16:10;;;;;;;24.33;17.55;;;;;;;15.88;31.57;100211.22;2622315;54;20046;-64
2022/03/23 11:18:42;;;;;;;23.42;17.20;;;;;;;16.07;31.21;100207.88;2620573;54;20038;-62
2022/03/23 11:21:12;;;;;;;23.42;18.83;;;;;;;16.20;30.84;100214.31;2621117;54;20074;-61
2022/03/23 12:46:49;;;;;;;18.88;15.90;;;;;;;17.87;24.86;100104.28;2593124;54;20117;-62
2022/03/23 12:57:53;;;;;;;21.17;15.75;;;;;;;18.37;24.29;100081.31;2619981;39;20485;-64
2022/03/23 13:00:30;;;;;;;19.30;15.45;;;;;;;18.55;23.38;100083.28;2618991;54;20812;-61
2022/03/23 13:03:32;;;;;;;18.55;15.75;;;;;;;18.50;23.01;100080.41;2619254;54;20122;-60
2022/03/23 13:06:15;;;;;;;20.45;15.48;;;;;;;18.53;23.30;100083.50;2618851;54;20030;-60
2022/03/23 13:08:48;;;;;;;18.85;15.90;;;;;;;18.67;23.23;100078.88;2618806;54;20554;-59
2022/03/23 13:11:23;;;;;;;17.15;14.48;;;;;;;18.68;23.14;100077.84;2618414;46;20022;-61
2022/03/23 13:13:55;;;;;;;18.88;15.38;;;;;;;18.70;22.96;100070.47;2619676;39;20430;-64
2022/03/23 13:16:27;;;;;;;18.25;15.15;;;;;;;18.78;23.17;100072.88;2619425;54;20034;-60
2022/03/23 13:18:59;;;;;;;18.40;15.80;;;;;;;18.80;23.07;100067.31;2619276;54;20034;-61
2022/03/23 13:21:33;;;;;;;24.15;16.02;;;;;;;18.89;22.91;100051.78;2619332;54;20042;-60
2022/03/23 13:24:04;;;;;;;16.63;14.85;;;;;;;18.91;22.69;100061.25;2619004;54;20022;-60
2022/03/23 13:26:36;;;;;;;17.85;14.63;;;;;;;18.90;22.67;100054.28;2619067;54;20743;-60
2022/03/23 13:29:08;;;;;;;18.88;15.45;;;;;;;18.90;22.50;100048.91;2618500;54;20537;-60